sensor_id;sensor_type;location;lat;lon;timestamp;P1;durP1;ratioP1;P2;durP2;ratioP2
42018;SDS011;27703;51.980;5.848;2022-08-19T00:02:02;1.40;;;0.70;;
42018;SDS011;27703;51.980;5.848;2022-08-19T00:04:29;1.58;;;0.65;;
42018;SDS011;27703;51.980;5.848;2022-08-19T00:06:57;0.90;;;0.52;;
42018;SDS011;27703;51.980;5.848;2022-08-19T00:09:24;1.58;;;0.70;;
42018;SDS011;27703;51.980;5.848;2022-08-19T00:11:51;1.05;;;0.60;;
42018;SDS011;27703;51.980;5.848;2022-08-19T00:14:18;0.95;;;0.50;;
42018;SDS011;27703;51.980;5.848;2022-08-19T00:16:45;0.77;;;0.52;;
42018;SDS011;27703;51.980;5.848;2022-08-19T00:19:12;1.40;;;1.00;;
42018;SDS011;27703;51.980;5.848;2022-08-19T00:21:39;1.05;;;0.73;;
42018;SDS011;27703;51.980;5.848;2022-08-19T00:24:05;1.58;;;0.63;;
42018;SDS011;27703;51.980;5.848;2022-08-19T00:26:35;1.42;;;0.60;;
42018;SDS011;27703;51.980;5.848;2022-08-19T00:29:02;1.55;;;0.63;;
42018;SDS011;27703;51.980;5.848;2022-08-19T00:31:29;1.20;;;0.70;;
42018;SDS011;27703;51.980;5.848;2022-08-19T00:33:56;1.02;;;0.70;;
42018;SDS011;27703;51.980;5.848;2022-08-19T00:36:22;1.52;;;0.93;;
42018;SDS011;27703;51.980;5.848;2022-08-19T00:38:47;1.50;;;0.90;;
42018;SDS011;27703;51.980;5.848;2022-08-19T00:41:14;2.17;;;0.80;;
42018;SDS011;27703;51.980;5.848;2022-08-19T00:43:42;1.73;;;0.85;;
42018;SDS011;27703;51.980;5.848;2022-08-19T00:46:08;1.40;;;1.00;;
42018;SDS011;27703;51.980;5.848;2022-08-19T00:48:34;2.15;;;0.85;;
42018;SDS011;27703;51.980;5.848;2022-08-19T00:51:01;2.17;;;0.80;;
42018;SDS011;27703;51.980;5.848;2022-08-19T00:53:27;1.40;;;0.98;;
42018;SDS011;27703;51.980;5.848;2022-08-19T00:55:56;1.15;;;0.77;;
42018;SDS011;27703;51.980;5.848;2022-08-19T00:58:26;1.35;;;0.70;;
42018;SDS011;27703;51.980;5.848;2022-08-19T01:00:54;1.95;;;0.70;;
42018;SDS011;27703;51.980;5.848;2022-08-19T01:03:20;1.30;;;0.80;;
42018;SDS011;27703;51.980;5.848;2022-08-19T01:05:47;2.53;;;1.33;;
42018;SDS011;27703;51.980;5.848;2022-08-19T01:08:16;2.17;;;1.35;;
42018;SDS011;27703;51.980;5.848;2022-08-19T01:10:44;1.80;;;1.10;;
42018;SDS011;27703;51.980;5.848;2022-08-19T01:13:20;2.20;;;1.15;;
42018;SDS011;27703;51.980;5.848;2022-08-19T01:15:50;2.30;;;1.23;;
42018;SDS011;27703;51.980;5.848;2022-08-19T01:18:19;2.85;;;1.23;;
42018;SDS011;27703;51.980;5.848;2022-08-19T01:20:46;1.50;;;1.35;;
42018;SDS011;27703;51.980;5.848;2022-08-19T01:23:12;1.20;;;0.90;;
42018;SDS011;27703;51.980;5.848;2022-08-19T01:25:41;1.55;;;1.08;;
42018;SDS011;27703;51.980;5.848;2022-08-19T01:28:15;1.58;;;1.23;;
42018;SDS011;27703;51.980;5.848;2022-08-19T01:30:46;2.03;;;1.70;;
42018;SDS011;27703;51.980;5.848;2022-08-19T01:33:13;2.10;;;1.27;;
42018;SDS011;27703;51.980;5.848;2022-08-19T01:35:39;2.35;;;1.27;;
42018;SDS011;27703;51.980;5.848;2022-08-19T01:38:06;2.33;;;1.50;;
42018;SDS011;27703;51.980;5.848;2022-08-19T01:40:36;1.73;;;1.30;;
42018;SDS011;27703;51.980;5.848;2022-08-19T01:43:03;3.05;;;1.50;;
42018;SDS011;27703;51.980;5.848;2022-08-19T01:45:30;1.90;;;1.50;;
42018;SDS011;27703;51.980;5.848;2022-08-19T01:47:58;2.65;;;1.80;;
42018;SDS011;27703;51.980;5.848;2022-08-19T01:50:24;2.25;;;1.52;;
42018;SDS011;27703;51.980;5.848;2022-08-19T01:52:51;2.65;;;1.83;;
42018;SDS011;27703;51.980;5.848;2022-08-19T01:55:19;1.98;;;1.35;;
42018;SDS011;27703;51.980;5.848;2022-08-19T01:57:49;1.85;;;1.38;;
42018;SDS011;27703;51.980;5.848;2022-08-19T02:00:20;2.72;;;1.55;;
42018;SDS011;27703;51.980;5.848;2022-08-19T02:02:47;1.95;;;1.50;;
42018;SDS011;27703;51.980;5.848;2022-08-19T02:05:13;1.80;;;1.50;;
42018;SDS011;27703;51.980;5.848;2022-08-19T02:07:39;2.67;;;1.48;;
42018;SDS011;27703;51.980;5.848;2022-08-19T02:10:14;3.35;;;1.88;;
42018;SDS011;27703;51.980;5.848;2022-08-19T02:12:46;3.37;;;1.87;;
42018;SDS011;27703;51.980;5.848;2022-08-19T02:15:14;1.90;;;1.65;;
42018;SDS011;27703;51.980;5.848;2022-08-19T02:17:40;2.17;;;1.98;;
42018;SDS011;27703;51.980;5.848;2022-08-19T02:20:07;3.83;;;2.25;;
42018;SDS011;27703;51.980;5.848;2022-08-19T02:22:33;3.63;;;1.60;;
42018;SDS011;27703;51.980;5.848;2022-08-19T02:25:00;1.77;;;1.67;;
42018;SDS011;27703;51.980;5.848;2022-08-19T02:27:26;1.73;;;1.40;;
42018;SDS011;27703;51.980;5.848;2022-08-19T02:29:51;2.00;;;1.58;;
42018;SDS011;27703;51.980;5.848;2022-08-19T02:32:18;1.90;;;1.63;;
42018;SDS011;27703;51.980;5.848;2022-08-19T02:34:45;1.70;;;1.38;;
42018;SDS011;27703;51.980;5.848;2022-08-19T02:37:11;2.47;;;1.70;;
42018;SDS011;27703;51.980;5.848;2022-08-19T02:39:56;3.15;;;2.05;;
42018;SDS011;27703;51.980;5.848;2022-08-19T02:42:22;4.10;;;2.05;;
42018;SDS011;27703;51.980;5.848;2022-08-19T02:44:47;2.28;;;2.08;;
42018;SDS011;27703;51.980;5.848;2022-08-19T02:47:13;1.75;;;1.35;;
42018;SDS011;27703;51.980;5.848;2022-08-19T02:49:39;2.63;;;2.03;;
42018;SDS011;27703;51.980;5.848;2022-08-19T02:52:05;4.00;;;1.88;;
42018;SDS011;27703;51.980;5.848;2022-08-19T02:54:31;3.08;;;1.30;;
42018;SDS011;27703;51.980;5.848;2022-08-19T02:56:57;2.70;;;2.03;;
42018;SDS011;27703;51.980;5.848;2022-08-19T02:59:23;3.70;;;2.42;;
42018;SDS011;27703;51.980;5.848;2022-08-19T03:01:50;2.75;;;2.22;;
42018;SDS011;27703;51.980;5.848;2022-08-19T03:04:16;5.78;;;2.38;;
42018;SDS011;27703;51.980;5.848;2022-08-19T03:06:43;2.50;;;2.15;;
42018;SDS011;27703;51.980;5.848;2022-08-19T03:09:09;2.13;;;1.88;;
42018;SDS011;27703;51.980;5.848;2022-08-19T03:11:36;1.63;;;1.15;;
42018;SDS011;27703;51.980;5.848;2022-08-19T03:14:03;2.33;;;2.03;;
42018;SDS011;27703;51.980;5.848;2022-08-19T03:16:31;4.25;;;1.92;;
42018;SDS011;27703;51.980;5.848;2022-08-19T03:19:04;2.20;;;2.00;;
42018;SDS011;27703;51.980;5.848;2022-08-19T03:21:30;3.33;;;1.77;;
42018;SDS011;27703;51.980;5.848;2022-08-19T03:23:58;3.35;;;2.03;;
42018;SDS011;27703;51.980;5.848;2022-08-19T03:26:26;1.90;;;1.70;;
42018;SDS011;27703;51.980;5.848;2022-08-19T03:28:52;2.10;;;1.75;;
42018;SDS011;27703;51.980;5.848;2022-08-19T03:31:18;2.72;;;2.20;;
42018;SDS011;27703;51.980;5.848;2022-08-19T03:33:47;3.22;;;2.30;;
42018;SDS011;27703;51.980;5.848;2022-08-19T03:36:15;1.88;;;1.67;;
42018;SDS011;27703;51.980;5.848;2022-08-19T03:38:44;2.92;;;2.25;;
42018;SDS011;27703;51.980;5.848;2022-08-19T03:41:15;2.15;;;1.95;;
42018;SDS011;27703;51.980;5.848;2022-08-19T03:43:46;2.50;;;2.30;;
42018;SDS011;27703;51.980;5.848;2022-08-19T03:46:13;3.10;;;2.78;;
42018;SDS011;27703;51.980;5.848;2022-08-19T03:48:40;2.88;;;2.67;;
42018;SDS011;27703;51.980;5.848;2022-08-19T03:51:07;2.63;;;2.42;;
42018;SDS011;27703;51.980;5.848;2022-08-19T03:53:40;2.35;;;2.13;;
42018;SDS011;27703;51.980;5.848;2022-08-19T03:56:05;2.08;;;1.75;;
42018;SDS011;27703;51.980;5.848;2022-08-19T03:58:33;3.00;;;2.55;;
42018;SDS011;27703;51.980;5.848;2022-08-19T04:00:59;3.28;;;2.97;;
42018;SDS011;27703;51.980;5.848;2022-08-19T04:03:24;2.72;;;1.95;;
42018;SDS011;27703;51.980;5.848;2022-08-19T04:05:51;2.78;;;2.33;;
42018;SDS011;27703;51.980;5.848;2022-08-19T04:08:18;2.58;;;2.38;;
42018;SDS011;27703;51.980;5.848;2022-08-19T04:10:46;2.78;;;2.20;;
42018;SDS011;27703;51.980;5.848;2022-08-19T04:13:12;2.78;;;2.58;;
42018;SDS011;27703;51.980;5.848;2022-08-19T04:15:40;4.93;;;2.40;;
42018;SDS011;27703;51.980;5.848;2022-08-19T04:18:08;3.15;;;2.72;;
42018;SDS011;27703;51.980;5.848;2022-08-19T04:20:44;2.83;;;2.63;;
42018;SDS011;27703;51.980;5.848;2022-08-19T04:23:11;2.83;;;2.63;;
42018;SDS011;27703;51.980;5.848;2022-08-19T04:25:39;2.47;;;2.25;;
42018;SDS011;27703;51.980;5.848;2022-08-19T04:28:06;2.88;;;2.67;;
42018;SDS011;27703;51.980;5.848;2022-08-19T04:30:37;4.70;;;3.03;;
42018;SDS011;27703;51.980;5.848;2022-08-19T04:33:16;4.57;;;2.72;;
42018;SDS011;27703;51.980;5.848;2022-08-19T04:35:45;2.40;;;2.20;;
42018;SDS011;27703;51.980;5.848;2022-08-19T04:38:14;4.30;;;2.95;;
42018;SDS011;27703;51.980;5.848;2022-08-19T04:40:45;2.63;;;2.42;;
42018;SDS011;27703;51.980;5.848;2022-08-19T04:43:32;3.58;;;2.47;;
42018;SDS011;27703;51.980;5.848;2022-08-19T04:46:04;3.03;;;1.98;;
42018;SDS011;27703;51.980;5.848;2022-08-19T04:48:32;3.20;;;2.90;;
42018;SDS011;27703;51.980;5.848;2022-08-19T04:50:58;2.90;;;2.47;;
42018;SDS011;27703;51.980;5.848;2022-08-19T04:53:25;3.50;;;2.50;;
42018;SDS011;27703;51.980;5.848;2022-08-19T04:55:54;2.90;;;2.47;;
42018;SDS011;27703;51.980;5.848;2022-08-19T04:58:21;3.13;;;2.83;;
42018;SDS011;27703;51.980;5.848;2022-08-19T05:00:47;3.17;;;2.55;;
42018;SDS011;27703;51.980;5.848;2022-08-19T05:03:13;2.88;;;2.58;;
42018;SDS011;27703;51.980;5.848;2022-08-19T05:05:42;2.85;;;2.65;;
42018;SDS011;27703;51.980;5.848;2022-08-19T05:08:13;3.33;;;3.10;;
42018;SDS011;27703;51.980;5.848;2022-08-19T05:10:44;3.85;;;3.55;;
42018;SDS011;27703;51.980;5.848;2022-08-19T05:13:10;5.00;;;3.95;;
42018;SDS011;27703;51.980;5.848;2022-08-19T05:15:36;4.30;;;3.90;;
42018;SDS011;27703;51.980;5.848;2022-08-19T05:18:01;5.18;;;4.47;;
42018;SDS011;27703;51.980;5.848;2022-08-19T05:20:45;4.72;;;3.85;;
42018;SDS011;27703;51.980;5.848;2022-08-19T05:23:29;4.60;;;4.28;;
42018;SDS011;27703;51.980;5.848;2022-08-19T05:25:55;4.82;;;4.47;;
42018;SDS011;27703;51.980;5.848;2022-08-19T05:28:20;4.47;;;4.13;;
42018;SDS011;27703;51.980;5.848;2022-08-19T05:30:46;3.90;;;3.53;;
42018;SDS011;27703;51.980;5.848;2022-08-19T05:33:13;4.18;;;3.88;;
42018;SDS011;27703;51.980;5.848;2022-08-19T05:35:39;5.35;;;4.85;;
42018;SDS011;27703;51.980;5.848;2022-08-19T05:38:05;5.05;;;4.65;;
42018;SDS011;27703;51.980;5.848;2022-08-19T05:40:36;6.55;;;5.88;;
42018;SDS011;27703;51.980;5.848;2022-08-19T05:43:03;6.88;;;6.28;;
42018;SDS011;27703;51.980;5.848;2022-08-19T05:45:30;6.03;;;5.53;;
42018;SDS011;27703;51.980;5.848;2022-08-19T05:47:56;6.28;;;5.78;;
42018;SDS011;27703;51.980;5.848;2022-08-19T05:50:23;6.43;;;5.97;;
42018;SDS011;27703;51.980;5.848;2022-08-19T05:52:50;5.53;;;4.97;;
42018;SDS011;27703;51.980;5.848;2022-08-19T05:55:16;7.07;;;5.95;;
42018;SDS011;27703;51.980;5.848;2022-08-19T05:57:41;9.35;;;5.55;;
42018;SDS011;27703;51.980;5.848;2022-08-19T06:00:07;4.90;;;4.47;;
42018;SDS011;27703;51.980;5.848;2022-08-19T06:02:35;9.30;;;5.15;;
42018;SDS011;27703;51.980;5.848;2022-08-19T06:05:02;5.88;;;4.60;;
42018;SDS011;27703;51.980;5.848;2022-08-19T06:07:31;4.78;;;3.40;;
42018;SDS011;27703;51.980;5.848;2022-08-19T06:09:57;5.13;;;4.68;;
42018;SDS011;27703;51.980;5.848;2022-08-19T06:12:22;5.63;;;5.22;;
42018;SDS011;27703;51.980;5.848;2022-08-19T06:14:56;5.57;;;4.35;;
42018;SDS011;27703;51.980;5.848;2022-08-19T06:17:22;4.68;;;4.28;;
42018;SDS011;27703;51.980;5.848;2022-08-19T06:19:50;4.75;;;4.45;;
42018;SDS011;27703;51.980;5.848;2022-08-19T06:22:15;7.65;;;7.05;;
42018;SDS011;27703;51.980;5.848;2022-08-19T06:24:41;7.15;;;6.45;;
42018;SDS011;27703;51.980;5.848;2022-08-19T06:27:07;7.68;;;6.97;;
42018;SDS011;27703;51.980;5.848;2022-08-19T06:29:33;6.78;;;6.18;;
42018;SDS011;27703;51.980;5.848;2022-08-19T06:32:00;6.68;;;6.07;;
42018;SDS011;27703;51.980;5.848;2022-08-19T06:34:28;7.22;;;6.50;;
42018;SDS011;27703;51.980;5.848;2022-08-19T06:36:56;7.40;;;6.70;;
42018;SDS011;27703;51.980;5.848;2022-08-19T06:39:26;7.73;;;7.03;;
42018;SDS011;27703;51.980;5.848;2022-08-19T06:41:55;10.57;;;8.57;;
42018;SDS011;27703;51.980;5.848;2022-08-19T06:44:22;13.07;;;10.82;;
42018;SDS011;27703;51.980;5.848;2022-08-19T06:46:51;11.68;;;10.48;;
42018;SDS011;27703;51.980;5.848;2022-08-19T06:49:17;16.67;;;13.95;;
42018;SDS011;27703;51.980;5.848;2022-08-19T06:51:44;18.85;;;14.52;;
42018;SDS011;27703;51.980;5.848;2022-08-19T06:54:12;18.52;;;13.25;;
42018;SDS011;27703;51.980;5.848;2022-08-19T06:56:39;20.13;;;15.60;;
42018;SDS011;27703;51.980;5.848;2022-08-19T06:59:07;26.60;;;19.65;;
42018;SDS011;27703;51.980;5.848;2022-08-19T07:01:34;27.23;;;18.05;;
42018;SDS011;27703;51.980;5.848;2022-08-19T07:04:07;25.10;;;18.80;;
42018;SDS011;27703;51.980;5.848;2022-08-19T07:06:34;42.83;;;26.40;;
42018;SDS011;27703;51.980;5.848;2022-08-19T07:09:00;42.10;;;29.00;;
42018;SDS011;27703;51.980;5.848;2022-08-19T07:11:26;48.47;;;28.58;;
42018;SDS011;27703;51.980;5.848;2022-08-19T07:13:52;46.78;;;28.40;;
42018;SDS011;27703;51.980;5.848;2022-08-19T07:16:18;35.42;;;22.00;;
42018;SDS011;27703;51.980;5.848;2022-08-19T07:18:45;39.72;;;26.08;;
42018;SDS011;27703;51.980;5.848;2022-08-19T07:21:13;40.35;;;27.50;;
42018;SDS011;27703;51.980;5.848;2022-08-19T07:23:44;47.90;;;30.08;;
42018;SDS011;27703;51.980;5.848;2022-08-19T07:26:12;51.20;;;32.33;;
42018;SDS011;27703;51.980;5.848;2022-08-19T07:28:41;45.67;;;29.80;;
42018;SDS011;27703;51.980;5.848;2022-08-19T07:31:09;42.65;;;26.95;;
42018;SDS011;27703;51.980;5.848;2022-08-19T07:33:37;48.45;;;31.15;;
42018;SDS011;27703;51.980;5.848;2022-08-19T07:36:04;46.45;;;30.50;;
42018;SDS011;27703;51.980;5.848;2022-08-19T07:38:31;47.25;;;30.38;;
42018;SDS011;27703;51.980;5.848;2022-08-19T07:40:58;50.35;;;33.58;;
42018;SDS011;27703;51.980;5.848;2022-08-19T07:43:23;56.38;;;37.70;;
42018;SDS011;27703;51.980;5.848;2022-08-19T07:45:51;62.85;;;39.90;;
42018;SDS011;27703;51.980;5.848;2022-08-19T07:48:18;58.58;;;40.05;;
42018;SDS011;27703;51.980;5.848;2022-08-19T07:50:43;71.45;;;47.45;;
42018;SDS011;27703;51.980;5.848;2022-08-19T07:53:09;69.15;;;45.85;;
42018;SDS011;27703;51.980;5.848;2022-08-19T07:55:36;59.83;;;40.40;;
42018;SDS011;27703;51.980;5.848;2022-08-19T07:58:02;53.80;;;37.75;;
42018;SDS011;27703;51.980;5.848;2022-08-19T08:00:29;46.05;;;33.33;;
42018;SDS011;27703;51.980;5.848;2022-08-19T08:02:55;55.40;;;37.63;;
42018;SDS011;27703;51.980;5.848;2022-08-19T08:05:20;54.85;;;40.55;;
42018;SDS011;27703;51.980;5.848;2022-08-19T08:08:06;59.10;;;42.95;;
42018;SDS011;27703;51.980;5.848;2022-08-19T08:11:06;62.83;;;43.15;;
42018;SDS011;27703;51.980;5.848;2022-08-19T08:13:32;66.88;;;45.63;;
42018;SDS011;27703;51.980;5.848;2022-08-19T08:16:00;68.05;;;46.55;;
42018;SDS011;27703;51.980;5.848;2022-08-19T08:18:27;62.45;;;44.17;;
42018;SDS011;27703;51.980;5.848;2022-08-19T08:20:52;56.05;;;39.80;;
42018;SDS011;27703;51.980;5.848;2022-08-19T08:23:18;50.78;;;36.08;;
42018;SDS011;27703;51.980;5.848;2022-08-19T08:25:55;50.65;;;36.55;;
42018;SDS011;27703;51.980;5.848;2022-08-19T08:28:22;57.22;;;41.10;;
42018;SDS011;27703;51.980;5.848;2022-08-19T08:30:49;53.35;;;38.25;;
42018;SDS011;27703;51.980;5.848;2022-08-19T08:33:19;49.33;;;37.33;;
42018;SDS011;27703;51.980;5.848;2022-08-19T08:35:46;44.95;;;32.30;;
42018;SDS011;27703;51.980;5.848;2022-08-19T08:38:13;40.78;;;29.77;;
42018;SDS011;27703;51.980;5.848;2022-08-19T08:43:33;42.97;;;31.42;;
42018;SDS011;27703;51.980;5.848;2022-08-19T08:46:04;45.75;;;33.88;;
42018;SDS011;27703;51.980;5.848;2022-08-19T08:48:35;38.90;;;28.20;;
42018;SDS011;27703;51.980;5.848;2022-08-19T08:51:07;41.00;;;30.38;;
42018;SDS011;27703;51.980;5.848;2022-08-19T08:53:36;46.20;;;33.20;;
42018;SDS011;27703;51.980;5.848;2022-08-19T08:56:03;45.95;;;30.45;;
42018;SDS011;27703;51.980;5.848;2022-08-19T08:58:32;45.00;;;33.30;;
42018;SDS011;27703;51.980;5.848;2022-08-19T09:01:11;42.13;;;31.15;;
42018;SDS011;27703;51.980;5.848;2022-08-19T09:03:38;37.92;;;26.88;;
42018;SDS011;27703;51.980;5.848;2022-08-19T09:09:03;35.30;;;27.75;;
42018;SDS011;27703;51.980;5.848;2022-08-19T09:16:59;45.78;;;31.67;;
42018;SDS011;27703;51.980;5.848;2022-08-19T09:19:28;41.88;;;31.77;;
42018;SDS011;27703;51.980;5.848;2022-08-19T09:21:54;39.60;;;30.35;;
42018;SDS011;27703;51.980;5.848;2022-08-19T09:24:20;40.15;;;29.95;;
42018;SDS011;27703;51.980;5.848;2022-08-19T09:26:46;34.10;;;25.10;;
42018;SDS011;27703;51.980;5.848;2022-08-19T09:29:11;36.80;;;28.02;;
42018;SDS011;27703;51.980;5.848;2022-08-19T09:31:37;33.88;;;27.00;;
42018;SDS011;27703;51.980;5.848;2022-08-19T09:34:03;36.15;;;25.92;;
42018;SDS011;27703;51.980;5.848;2022-08-19T09:36:30;27.25;;;22.05;;
42018;SDS011;27703;51.980;5.848;2022-08-19T09:39:00;25.88;;;20.42;;
42018;SDS011;27703;51.980;5.848;2022-08-19T09:41:28;30.83;;;25.10;;
42018;SDS011;27703;51.980;5.848;2022-08-19T09:43:55;29.33;;;23.10;;
42018;SDS011;27703;51.980;5.848;2022-08-19T09:46:23;31.70;;;22.92;;
42018;SDS011;27703;51.980;5.848;2022-08-19T09:48:51;24.95;;;19.33;;
42018;SDS011;27703;51.980;5.848;2022-08-19T09:51:18;32.90;;;24.27;;
42018;SDS011;27703;51.980;5.848;2022-08-19T09:53:46;37.65;;;25.27;;
42018;SDS011;27703;51.980;5.848;2022-08-19T09:56:15;31.45;;;22.17;;
42018;SDS011;27703;51.980;5.848;2022-08-19T09:58:41;32.83;;;24.88;;
42018;SDS011;27703;51.980;5.848;2022-08-19T10:01:07;35.53;;;24.33;;
42018;SDS011;27703;51.980;5.848;2022-08-19T10:03:34;36.72;;;26.13;;
42018;SDS011;27703;51.980;5.848;2022-08-19T10:06:01;45.28;;;29.67;;
42018;SDS011;27703;51.980;5.848;2022-08-19T10:08:30;37.65;;;22.08;;
42018;SDS011;27703;51.980;5.848;2022-08-19T10:10:58;27.33;;;19.65;;
42018;SDS011;27703;51.980;5.848;2022-08-19T10:13:26;30.63;;;21.67;;
42018;SDS011;27703;51.980;5.848;2022-08-19T10:15:54;26.92;;;18.95;;
42018;SDS011;27703;51.980;5.848;2022-08-19T10:18:22;26.75;;;18.88;;
42018;SDS011;27703;51.980;5.848;2022-08-19T10:20:49;28.58;;;20.98;;
42018;SDS011;27703;51.980;5.848;2022-08-19T10:23:15;22.00;;;16.88;;
42018;SDS011;27703;51.980;5.848;2022-08-19T10:25:42;29.42;;;19.13;;
42018;SDS011;27703;51.980;5.848;2022-08-19T10:28:08;30.88;;;20.95;;
42018;SDS011;27703;51.980;5.848;2022-08-19T10:30:37;29.52;;;20.88;;
42018;SDS011;27703;51.980;5.848;2022-08-19T10:33:03;21.60;;;14.55;;
42018;SDS011;27703;51.980;5.848;2022-08-19T10:35:29;29.67;;;20.55;;
42018;SDS011;27703;51.980;5.848;2022-08-19T10:37:55;29.92;;;21.85;;
42018;SDS011;27703;51.980;5.848;2022-08-19T10:40:24;31.15;;;19.50;;
42018;SDS011;27703;51.980;5.848;2022-08-19T10:42:51;27.27;;;17.85;;
42018;SDS011;27703;51.980;5.848;2022-08-19T10:45:17;20.67;;;13.38;;
42018;SDS011;27703;51.980;5.848;2022-08-19T10:47:43;26.65;;;18.75;;
42018;SDS011;27703;51.980;5.848;2022-08-19T10:50:09;30.65;;;20.55;;
42018;SDS011;27703;51.980;5.848;2022-08-19T10:52:53;23.70;;;16.85;;
42018;SDS011;27703;51.980;5.848;2022-08-19T10:55:20;25.73;;;17.95;;
42018;SDS011;27703;51.980;5.848;2022-08-19T10:58:13;22.80;;;14.77;;
42018;SDS011;27703;51.980;5.848;2022-08-19T11:00:41;23.25;;;17.70;;
42018;SDS011;27703;51.980;5.848;2022-08-19T11:03:08;22.30;;;14.73;;
42018;SDS011;27703;51.980;5.848;2022-08-19T11:05:34;24.92;;;16.73;;
42018;SDS011;27703;51.980;5.848;2022-08-19T11:08:00;24.58;;;16.80;;
42018;SDS011;27703;51.980;5.848;2022-08-19T11:10:25;19.20;;;14.48;;
42018;SDS011;27703;51.980;5.848;2022-08-19T11:12:51;20.48;;;15.20;;
42018;SDS011;27703;51.980;5.848;2022-08-19T11:15:19;22.65;;;15.50;;
42018;SDS011;27703;51.980;5.848;2022-08-19T11:17:45;20.02;;;14.80;;
42018;SDS011;27703;51.980;5.848;2022-08-19T11:20:11;23.00;;;17.58;;
42018;SDS011;27703;51.980;5.848;2022-08-19T11:22:38;20.83;;;16.52;;
42018;SDS011;27703;51.980;5.848;2022-08-19T11:25:05;21.23;;;14.48;;
42018;SDS011;27703;51.980;5.848;2022-08-19T11:27:31;19.13;;;16.23;;
42018;SDS011;27703;51.980;5.848;2022-08-19T11:29:56;24.52;;;19.17;;
42018;SDS011;27703;51.980;5.848;2022-08-19T11:32:22;15.52;;;12.70;;
42018;SDS011;27703;51.980;5.848;2022-08-19T11:34:47;20.98;;;14.73;;
42018;SDS011;27703;51.980;5.848;2022-08-19T11:37:13;19.33;;;14.98;;
42018;SDS011;27703;51.980;5.848;2022-08-19T11:39:39;12.60;;;11.30;;
42018;SDS011;27703;51.980;5.848;2022-08-19T11:42:05;13.02;;;10.88;;
42018;SDS011;27703;51.980;5.848;2022-08-19T11:44:51;17.25;;;12.43;;
42018;SDS011;27703;51.980;5.848;2022-08-19T11:47:17;17.02;;;11.40;;
42018;SDS011;27703;51.980;5.848;2022-08-19T11:49:44;20.50;;;15.05;;
42018;SDS011;27703;51.980;5.848;2022-08-19T11:52:11;16.88;;;14.18;;
42018;SDS011;27703;51.980;5.848;2022-08-19T11:54:36;19.30;;;15.00;;
42018;SDS011;27703;51.980;5.848;2022-08-19T11:57:03;17.08;;;10.25;;
42018;SDS011;27703;51.980;5.848;2022-08-19T11:59:29;12.55;;;9.40;;
42018;SDS011;27703;51.980;5.848;2022-08-19T12:01:54;13.75;;;9.70;;
42018;SDS011;27703;51.980;5.848;2022-08-19T12:04:20;13.30;;;10.32;;
42018;SDS011;27703;51.980;5.848;2022-08-19T12:06:46;15.02;;;9.85;;
42018;SDS011;27703;51.980;5.848;2022-08-19T12:09:12;16.13;;;13.13;;
42018;SDS011;27703;51.980;5.848;2022-08-19T12:11:39;15.20;;;12.10;;
42018;SDS011;27703;51.980;5.848;2022-08-19T12:14:06;16.65;;;14.88;;
42018;SDS011;27703;51.980;5.848;2022-08-19T12:16:34;15.38;;;13.77;;
42018;SDS011;27703;51.980;5.848;2022-08-19T12:19:00;20.38;;;18.17;;
42018;SDS011;27703;51.980;5.848;2022-08-19T12:21:29;24.20;;;18.08;;
42018;SDS011;27703;51.980;5.848;2022-08-19T12:23:56;19.80;;;16.15;;
42018;SDS011;27703;51.980;5.848;2022-08-19T12:26:23;19.63;;;13.70;;
42018;SDS011;27703;51.980;5.848;2022-08-19T12:28:50;20.88;;;17.15;;
42018;SDS011;27703;51.980;5.848;2022-08-19T12:31:16;18.83;;;15.68;;
42018;SDS011;27703;51.980;5.848;2022-08-19T12:33:43;18.85;;;15.57;;
42018;SDS011;27703;51.980;5.848;2022-08-19T12:36:09;16.45;;;13.23;;
42018;SDS011;27703;51.980;5.848;2022-08-19T12:38:37;19.48;;;17.02;;
42018;SDS011;27703;51.980;5.848;2022-08-19T12:41:03;16.98;;;12.93;;
42018;SDS011;27703;51.980;5.848;2022-08-19T12:43:32;15.00;;;12.18;;
42018;SDS011;27703;51.980;5.848;2022-08-19T12:46:02;11.77;;;10.57;;
42018;SDS011;27703;51.980;5.848;2022-08-19T12:48:31;20.35;;;18.13;;
42018;SDS011;27703;51.980;5.848;2022-08-19T12:50:57;15.18;;;13.57;;
42018;SDS011;27703;51.980;5.848;2022-08-19T12:53:23;18.52;;;15.45;;
42018;SDS011;27703;51.980;5.848;2022-08-19T12:55:56;17.40;;;14.95;;
42018;SDS011;27703;51.980;5.848;2022-08-19T12:58:22;13.50;;;11.98;;
42018;SDS011;27703;51.980;5.848;2022-08-19T13:00:48;17.30;;;14.95;;
42018;SDS011;27703;51.980;5.848;2022-08-19T13:03:14;13.63;;;12.20;;
42018;SDS011;27703;51.980;5.848;2022-08-19T13:05:40;14.90;;;13.15;;
42018;SDS011;27703;51.980;5.848;2022-08-19T13:08:05;14.73;;;12.65;;
42018;SDS011;27703;51.980;5.848;2022-08-19T13:10:32;17.27;;;13.45;;
42018;SDS011;27703;51.980;5.848;2022-08-19T13:13:00;18.35;;;16.48;;
42018;SDS011;27703;51.980;5.848;2022-08-19T13:15:27;16.10;;;14.52;;
42018;SDS011;27703;51.980;5.848;2022-08-19T13:17:56;18.33;;;15.50;;
42018;SDS011;27703;51.980;5.848;2022-08-19T13:20:22;17.05;;;14.30;;
42018;SDS011;27703;51.980;5.848;2022-08-19T13:22:48;14.60;;;12.10;;
42018;SDS011;27703;51.980;5.848;2022-08-19T13:25:14;17.98;;;15.77;;
42018;SDS011;27703;51.980;5.848;2022-08-19T13:27:42;17.75;;;14.90;;
42018;SDS011;27703;51.980;5.848;2022-08-19T13:30:09;12.40;;;10.85;;
42018;SDS011;27703;51.980;5.848;2022-08-19T13:32:54;11.10;;;10.00;;
42018;SDS011;27703;51.980;5.848;2022-08-19T13:35:40;14.43;;;12.85;;
42018;SDS011;27703;51.980;5.848;2022-08-19T13:38:09;14.75;;;11.95;;
42018;SDS011;27703;51.980;5.848;2022-08-19T13:40:35;12.75;;;11.65;;
42018;SDS011;27703;51.980;5.848;2022-08-19T13:43:01;13.38;;;11.68;;
42018;SDS011;27703;51.980;5.848;2022-08-19T13:45:29;14.32;;;12.30;;
42018;SDS011;27703;51.980;5.848;2022-08-19T13:47:58;14.02;;;10.95;;
42018;SDS011;27703;51.980;5.848;2022-08-19T13:50:28;12.50;;;11.20;;
42018;SDS011;27703;51.980;5.848;2022-08-19T13:52:58;16.33;;;14.32;;
42018;SDS011;27703;51.980;5.848;2022-08-19T13:55:25;16.50;;;14.45;;
42018;SDS011;27703;51.980;5.848;2022-08-19T13:57:55;11.73;;;10.70;;
42018;SDS011;27703;51.980;5.848;2022-08-19T14:00:23;15.80;;;12.65;;
42018;SDS011;27703;51.980;5.848;2022-08-19T14:02:51;16.33;;;12.73;;
42018;SDS011;27703;51.980;5.848;2022-08-19T14:05:18;20.15;;;15.10;;
42018;SDS011;27703;51.980;5.848;2022-08-19T14:07:45;19.00;;;13.85;;
42018;SDS011;27703;51.980;5.848;2022-08-19T14:10:11;17.60;;;14.77;;
42018;SDS011;27703;51.980;5.848;2022-08-19T14:12:38;17.17;;;14.02;;
42018;SDS011;27703;51.980;5.848;2022-08-19T14:15:05;15.98;;;14.18;;
42018;SDS011;27703;51.980;5.848;2022-08-19T14:17:32;13.85;;;11.60;;
42018;SDS011;27703;51.980;5.848;2022-08-19T14:20:00;17.00;;;12.85;;
42018;SDS011;27703;51.980;5.848;2022-08-19T14:22:29;12.80;;;10.07;;
42018;SDS011;27703;51.980;5.848;2022-08-19T14:24:56;8.85;;;7.95;;
42018;SDS011;27703;51.980;5.848;2022-08-19T14:27:22;11.77;;;9.23;;
42018;SDS011;27703;51.980;5.848;2022-08-19T14:29:50;11.25;;;10.02;;
42018;SDS011;27703;51.980;5.848;2022-08-19T14:32:16;11.40;;;9.38;;
42018;SDS011;27703;51.980;5.848;2022-08-19T14:34:41;13.93;;;12.52;;
42018;SDS011;27703;51.980;5.848;2022-08-19T14:37:07;20.02;;;13.82;;
42018;SDS011;27703;51.980;5.848;2022-08-19T14:39:34;17.58;;;14.05;;
42018;SDS011;27703;51.980;5.848;2022-08-19T14:41:59;13.77;;;12.38;;
42018;SDS011;27703;51.980;5.848;2022-08-19T14:44:26;13.13;;;11.82;;
42018;SDS011;27703;51.980;5.848;2022-08-19T14:46:51;15.15;;;11.65;;
42018;SDS011;27703;51.980;5.848;2022-08-19T14:49:18;13.00;;;10.70;;